createdAt,value
2018-09-20T00:00:20.033Z,4.93
2018-09-20T00:02:48.616Z,5.00
2018-09-20T00:05:17.120Z,4.57
2018-09-20T00:07:45.683Z,5.67
2018-09-20T00:10:14.123Z,4.90
2018-09-20T00:12:42.627Z,4.70
2018-09-20T00:15:14.123Z,5.23
2018-09-20T00:17:42.619Z,4.70
2018-09-20T00:20:11.109Z,6.13
2018-09-20T00:22:39.611Z,6.23
2018-09-20T00:25:08.100Z,5.53
2018-09-20T00:27:37.355Z,5.30
2018-09-20T00:30:05.955Z,5.43
2018-09-20T00:32:34.531Z,5.47
2018-09-20T00:35:03.075Z,6.00
2018-09-20T00:37:31.619Z,5.20
2018-09-20T00:40:00.133Z,5.47
2018-09-20T00:42:28.894Z,5.53
2018-09-20T00:44:57.348Z,5.70
2018-09-20T00:47:25.890Z,5.57
2018-09-20T00:49:54.415Z,5.80
2018-09-20T00:52:22.829Z,5.30
2018-09-20T00:54:51.290Z,5.73
2018-09-20T00:57:19.734Z,6.47
2018-09-20T00:59:48.337Z,6.00
2018-09-20T01:02:17.091Z,6.37
2018-09-20T01:04:45.548Z,6.30
2018-09-20T01:07:14.017Z,6.50
2018-09-20T01:09:42.714Z,6.00
2018-09-20T01:12:11.495Z,5.87
2018-09-20T01:14:39.946Z,6.30
2018-09-20T01:17:08.451Z,6.13
2018-09-20T01:19:36.919Z,6.43
2018-09-20T01:22:05.798Z,6.30
2018-09-20T01:24:34.307Z,6.50
2018-09-20T01:27:02.944Z,6.77
2018-09-20T01:29:31.398Z,5.90
2018-09-20T01:31:59.894Z,5.13
2018-09-20T01:34:29.267Z,6.07
2018-09-20T01:36:58.298Z,6.47
2018-09-20T01:39:26.825Z,5.97
2018-09-20T01:41:55.319Z,6.00
2018-09-20T01:44:23.742Z,5.63
2018-09-20T01:46:52.228Z,5.83
2018-09-20T01:49:20.687Z,6.03
2018-09-20T01:51:49.658Z,6.40
2018-09-20T01:54:18.145Z,5.83
2018-09-20T01:56:46.718Z,6.43
2018-09-20T01:59:15.299Z,6.10
2018-09-20T02:01:45.015Z,6.13
2018-09-20T02:04:14.418Z,5.90
2018-09-20T02:06:43.059Z,6.13
2018-09-20T02:09:11.744Z,6.30
2018-09-20T02:11:40.250Z,6.27
2018-09-20T02:14:08.721Z,6.30
2018-09-20T02:16:37.181Z,5.77
2018-09-20T02:19:05.998Z,6.40
2018-09-20T02:21:34.455Z,6.20
2018-09-20T02:24:02.961Z,6.67
2018-09-20T02:26:31.520Z,6.53
2018-09-20T02:29:00.559Z,5.80
2018-09-20T02:31:29.003Z,6.07
2018-09-20T02:33:57.489Z,6.30
2018-09-20T02:36:26.038Z,6.30
2018-09-20T02:38:55.229Z,6.13
2018-09-20T02:41:23.952Z,6.13
2018-09-20T02:43:52.417Z,6.47
2018-09-20T02:46:20.922Z,6.57
2018-09-20T02:48:49.594Z,6.20
2018-09-20T02:51:18.157Z,5.90
2018-09-20T02:53:47.411Z,6.50
2018-09-20T02:56:15.863Z,6.20
2018-09-20T02:58:44.327Z,6.37
2018-09-20T03:01:12.899Z,6.33
2018-09-20T03:03:41.356Z,6.20
2018-09-20T03:06:09.859Z,6.60
2018-09-20T03:08:38.346Z,6.37
2018-09-20T03:11:06.811Z,6.20
2018-09-20T03:13:35.306Z,6.93
2018-09-20T03:16:03.875Z,6.53
2018-09-20T03:18:32.379Z,6.27
2018-09-20T03:21:00.859Z,6.30
2018-09-20T03:23:29.357Z,6.57
2018-09-20T03:25:57.846Z,7.43
2018-09-20T03:28:26.984Z,5.83
2018-09-20T03:30:56.091Z,6.23
2018-09-20T03:33:24.542Z,6.80
2018-09-20T03:35:53.563Z,6.47
2018-09-20T03:38:22.362Z,6.60
2018-09-20T03:40:50.919Z,6.40
2018-09-20T03:43:20.276Z,6.47
2018-09-20T03:45:48.772Z,7.27
2018-09-20T03:48:17.238Z,6.83
2018-09-20T03:50:45.698Z,6.53
2018-09-20T03:53:14.176Z,6.23
2018-09-20T03:55:42.707Z,6.83
2018-09-20T03:58:11.141Z,6.97
2018-09-20T04:00:39.639Z,6.67
2018-09-20T04:03:08.098Z,6.87
2018-09-20T04:05:36.657Z,6.63
2018-09-20T04:08:05.258Z,6.07
2018-09-20T04:10:33.790Z,6.10
2018-09-20T04:13:02.383Z,5.93
2018-09-20T04:15:30.963Z,6.03
2018-09-20T04:17:59.438Z,6.50
2018-09-20T04:20:27.964Z,6.20
2018-09-20T04:22:56.707Z,6.20
2018-09-20T04:25:25.331Z,6.10
2018-09-20T04:27:53.778Z,6.13
2018-09-20T04:30:22.263Z,6.27
2018-09-20T04:32:50.729Z,5.83
2018-09-20T04:35:19.215Z,5.80
2018-09-20T04:37:47.702Z,6.17
2018-09-20T04:40:16.143Z,6.23
2018-09-20T04:42:44.632Z,5.77
2018-09-20T04:45:13.164Z,6.33
2018-09-20T04:47:41.684Z,5.73
2018-09-20T04:50:10.188Z,5.93
2018-09-20T04:52:39.446Z,6.23
2018-09-20T04:55:08.988Z,5.70
2018-09-20T04:57:37.549Z,6.40
2018-09-20T05:00:06.339Z,6.37
2018-09-20T05:02:34.867Z,6.03
2018-09-20T05:05:03.426Z,6.53
2018-09-20T05:07:31.913Z,6.43
2018-09-20T05:10:00.378Z,6.97
2018-09-20T05:12:29.059Z,6.77
2018-09-20T05:14:58.287Z,6.80
2018-09-20T05:17:26.806Z,6.63
2018-09-20T05:19:55.295Z,5.70
2018-09-20T05:22:23.718Z,6.60
2018-09-20T05:24:52.240Z,5.90
2018-09-20T05:27:21.271Z,7.10
2018-09-20T05:29:49.736Z,6.10
2018-09-20T05:32:18.855Z,6.80
2018-09-20T05:34:48.413Z,5.93
2018-09-20T05:37:16.994Z,6.30
2018-09-20T05:39:45.497Z,7.20
2018-09-20T05:42:14.020Z,7.17
2018-09-20T05:44:43.273Z,5.83
2018-09-20T05:47:11.754Z,6.40
2018-09-20T05:49:40.252Z,6.57
2018-09-20T05:52:08.704Z,5.63
2018-09-20T05:54:37.195Z,5.80
2018-09-20T05:57:05.659Z,5.70
2018-09-20T05:59:34.213Z,6.20
2018-09-20T06:02:02.699Z,6.37
2018-09-20T06:04:31.971Z,6.33
2018-09-20T06:07:00.463Z,5.33
2018-09-20T06:09:28.953Z,6.23
2018-09-20T06:11:57.414Z,5.40
2018-09-20T06:14:25.835Z,5.87
2018-09-20T06:16:54.586Z,5.90
2018-09-20T06:19:23.017Z,6.17
2018-09-20T06:21:51.596Z,5.90
2018-09-20T06:24:19.964Z,5.27
2018-09-20T06:26:48.478Z,6.10
2018-09-20T06:29:17.640Z,5.70
2018-09-20T06:31:46.109Z,5.93
2018-09-20T06:34:14.573Z,5.70
2018-09-20T06:36:44.439Z,5.77
2018-09-20T06:39:13.556Z,5.50
2018-09-20T06:41:42.686Z,5.37
2018-09-20T06:44:11.244Z,5.70
2018-09-20T06:46:39.833Z,5.10
2018-09-20T06:49:08.418Z,5.67
2018-09-20T06:51:37.012Z,5.37
2018-09-20T06:54:07.367Z,5.23
2018-09-20T06:56:36.774Z,5.10
2018-09-20T06:59:05.182Z,5.93
2018-09-20T07:01:33.831Z,5.50
2018-09-20T07:04:02.484Z,6.30
2018-09-20T07:06:31.068Z,5.33
2018-09-20T07:08:59.589Z,5.77
2018-09-20T07:11:28.101Z,5.70
2018-09-20T07:13:56.614Z,5.20
2018-09-20T07:16:25.162Z,4.90
2018-09-20T07:18:53.625Z,5.23
2018-09-20T07:21:22.218Z,5.23
2018-09-20T07:23:57.417Z,5.70
2018-09-20T07:26:26.573Z,5.47
2018-09-20T07:28:55.093Z,4.60
2018-09-20T07:31:23.606Z,5.57
2018-09-20T07:33:52.131Z,4.90
2018-09-20T07:36:20.576Z,4.83
2018-09-20T07:38:49.253Z,5.07
2018-09-20T07:41:17.878Z,4.77
2018-09-20T07:43:46.403Z,4.87
2018-09-20T07:46:14.850Z,4.77
2018-09-20T07:48:43.529Z,5.17
2018-09-20T07:51:12.066Z,4.83
2018-09-20T07:53:40.754Z,4.57
2018-09-20T07:56:09.166Z,4.50
2018-09-20T07:58:38.257Z,4.50
2018-09-20T08:01:06.727Z,4.30
2018-09-20T08:03:35.218Z,4.53
2018-09-20T08:06:04.157Z,4.37
2018-09-20T08:08:33.736Z,4.80
2018-09-20T08:11:02.251Z,5.03
2018-09-20T08:13:30.704Z,4.10
2018-09-20T08:15:59.410Z,4.40
2018-09-20T08:18:27.931Z,4.53
2018-09-20T08:20:56.426Z,4.53
2018-09-20T08:23:24.944Z,4.37
2018-09-20T08:25:53.729Z,4.57
2018-09-20T08:28:22.659Z,4.17
2018-09-20T08:30:51.276Z,4.80
2018-09-20T08:33:19.988Z,3.60
2018-09-20T08:35:49.173Z,3.93
2018-09-20T08:38:17.687Z,3.83
2018-09-20T08:40:48.175Z,3.90
2018-09-20T08:43:16.652Z,4.10
2018-09-20T08:45:46.381Z,4.33
2018-09-20T08:48:15.368Z,3.90
2018-09-20T08:50:45.789Z,4.00
2018-09-20T08:53:14.257Z,4.00
2018-09-20T08:55:42.755Z,4.13
2018-09-20T08:58:14.170Z,4.50
2018-09-20T09:00:42.693Z,3.70
2018-09-20T09:03:11.151Z,4.00
2018-09-20T09:05:39.701Z,3.73
2018-09-20T09:08:08.589Z,4.57
2018-09-20T09:10:37.289Z,4.67
2018-09-20T09:13:06.065Z,4.53
2018-09-20T09:15:34.550Z,4.70
2018-09-20T09:18:03.116Z,4.07
2018-09-20T09:20:33.409Z,3.87
2018-09-20T09:23:03.551Z,3.97
2018-09-20T09:25:32.787Z,4.13
2018-09-20T09:28:01.431Z,3.63
2018-09-20T09:30:29.975Z,4.03
2018-09-20T09:32:58.712Z,4.23
2018-09-20T09:35:27.204Z,4.73
2018-09-20T09:37:55.700Z,3.80
2018-09-20T09:40:24.150Z,4.33
2018-09-20T09:42:54.311Z,4.20
2018-09-20T09:45:24.900Z,4.27
2018-09-20T09:47:53.407Z,4.30
2018-09-20T09:50:23.987Z,4.40
2018-09-20T09:52:52.787Z,4.67
2018-09-20T09:55:21.252Z,4.57
2018-09-20T09:57:53.280Z,4.30
2018-09-20T10:00:27.363Z,4.30
2018-09-20T10:02:57.049Z,4.23
2018-09-20T10:05:25.604Z,4.17
2018-09-20T10:07:54.292Z,4.17
2018-09-20T10:10:22.791Z,4.10
2018-09-20T10:12:51.284Z,4.47
2018-09-20T10:15:19.840Z,4.30
2018-09-20T10:17:48.327Z,4.20
2018-09-20T10:20:17.585Z,4.10
2018-09-20T10:22:46.884Z,4.00
2018-09-20T10:25:15.944Z,4.20
2018-09-20T10:27:44.483Z,4.33
2018-09-20T10:30:13.826Z,4.13
2018-09-20T10:32:43.580Z,3.63
2018-09-20T10:35:12.037Z,4.00
2018-09-20T10:37:40.979Z,4.50
2018-09-20T10:40:09.524Z,3.93
2018-09-20T10:42:38.031Z,3.70
2018-09-20T10:45:06.617Z,3.63
2018-09-20T10:47:36.599Z,3.80
2018-09-20T10:50:05.188Z,3.83
2018-09-20T10:52:33.736Z,3.87
2018-09-20T10:55:04.747Z,3.83
2018-09-20T10:57:33.235Z,3.90
2018-09-20T11:00:01.853Z,3.80
2018-09-20T11:02:32.119Z,4.30
2018-09-20T11:05:01.705Z,4.10
2018-09-20T11:07:30.844Z,4.37
2018-09-20T11:10:00.650Z,4.13
2018-09-20T11:12:34.953Z,4.27
2018-09-20T11:15:03.781Z,3.83
2018-09-20T11:17:32.270Z,3.63
2018-09-20T11:20:01.884Z,3.60
2018-09-20T11:22:30.415Z,3.57
2018-09-20T11:24:58.896Z,3.83
2018-09-20T11:27:27.817Z,4.13
2018-09-20T11:29:57.075Z,3.73
2018-09-20T11:32:25.674Z,3.80
2018-09-20T11:34:54.216Z,3.63
2018-09-20T11:37:23.804Z,3.67
2018-09-20T11:39:52.742Z,3.63
2018-09-20T11:42:21.430Z,3.80
2018-09-20T11:44:49.973Z,3.87
2018-09-20T11:47:18.726Z,3.50
2018-09-20T11:49:49.023Z,3.73
2018-09-20T11:52:17.596Z,3.50
2018-09-20T11:54:46.535Z,3.50
2018-09-20T11:57:15.793Z,3.83
2018-09-20T11:59:45.014Z,3.30
2018-09-20T12:02:14.608Z,3.00
2018-09-20T12:04:45.893Z,3.40
2018-09-20T12:07:20.045Z,4.03
2018-09-20T12:09:48.606Z,3.77
2018-09-20T12:12:26.044Z,3.50
2018-09-20T12:14:54.821Z,3.50
2018-09-20T12:17:24.126Z,3.73
2018-09-20T12:19:53.448Z,3.50
2018-09-20T12:22:22.846Z,3.33
2018-09-20T12:24:53.348Z,3.97
2018-09-20T12:27:22.335Z,3.20
2018-09-20T12:29:51.441Z,3.47
2018-09-20T12:32:20.240Z,4.03
2018-09-20T12:34:50.794Z,3.73
2018-09-20T12:37:21.643Z,3.27
2018-09-20T12:39:53.169Z,3.63
2018-09-20T12:42:22.793Z,3.80
2018-09-20T12:44:51.625Z,3.03
2018-09-20T12:47:21.059Z,3.43
2018-09-20T12:49:50.703Z,3.37
2018-09-20T12:52:19.250Z,3.20
2018-09-20T12:54:47.913Z,3.37
2018-09-20T12:57:16.389Z,3.97
2018-09-20T12:59:46.999Z,3.77
2018-09-20T13:02:19.186Z,3.60
2018-09-20T13:04:47.861Z,3.57
2018-09-20T13:07:17.373Z,3.90
2018-09-20T13:09:47.854Z,3.20
2018-09-20T13:12:17.001Z,3.57
2018-09-20T13:14:47.496Z,3.87
2018-09-20T13:17:31.438Z,3.60
2018-09-20T13:20:00.432Z,3.93
2018-09-20T13:22:34.366Z,3.50
2018-09-20T13:25:04.046Z,3.67
2018-09-20T13:27:33.249Z,3.83
2018-09-20T13:30:02.506Z,3.60
2018-09-20T13:32:32.257Z,3.67
2018-09-20T13:35:04.137Z,3.17
2018-09-20T13:37:38.887Z,3.40
2018-09-20T13:40:08.073Z,3.63
2018-09-20T13:42:37.126Z,2.90
2018-09-20T13:45:06.420Z,4.17
2018-09-20T13:47:38.331Z,3.40
2018-09-20T13:50:07.133Z,3.60
2018-09-20T13:52:50.672Z,2.67
2018-09-20T13:55:34.592Z,3.20
2018-09-20T13:58:06.679Z,3.50
2018-09-20T14:00:42.745Z,3.33
2018-09-20T14:03:19.028Z,3.30
2018-09-20T14:05:49.384Z,2.93
2018-09-20T14:08:20.744Z,3.53
2018-09-20T14:10:50.022Z,3.30
2018-09-20T14:13:31.164Z,3.97
2018-09-20T14:16:00.662Z,2.83
2018-09-20T14:18:30.774Z,3.33
2018-09-20T14:21:00.959Z,3.10
2018-09-20T14:23:31.806Z,3.10
2018-09-20T14:26:03.992Z,3.00
2018-09-20T14:28:33.401Z,3.50
2018-09-20T14:31:02.737Z,3.17
2018-09-20T14:34:19.646Z,2.90
2018-09-20T14:36:50.947Z,3.60
2018-09-20T14:39:20.144Z,3.30
2018-09-20T14:41:49.146Z,3.03
2018-09-20T14:44:18.036Z,2.90
2018-09-20T14:46:48.715Z,3.43
2018-09-20T14:49:19.631Z,2.90
2018-09-20T14:51:48.650Z,2.70
2018-09-20T14:54:17.758Z,2.80
2018-09-20T14:56:46.984Z,3.10
2018-09-20T14:59:16.230Z,3.30
2018-09-20T15:01:45.423Z,3.03
2018-09-20T15:04:14.269Z,3.03
2018-09-20T15:06:42.980Z,2.87
2018-09-20T15:13:20.201Z,2.67
2018-09-20T15:15:48.887Z,2.63
2018-09-20T15:18:17.374Z,2.53
2018-09-20T15:20:45.958Z,2.90
2018-09-20T15:23:15.157Z,2.70
2018-09-20T15:25:43.629Z,2.87
2018-09-20T15:28:12.612Z,2.80
2018-09-20T15:30:41.128Z,2.93
2018-09-20T15:33:09.708Z,2.80
2018-09-20T15:35:38.215Z,2.60
2018-09-20T15:38:06.774Z,2.80
2018-09-20T15:40:35.334Z,2.60
2018-09-20T15:43:03.920Z,2.70
2018-09-20T15:45:32.540Z,2.90
2018-09-20T15:48:01.042Z,2.73
2018-09-20T15:50:29.732Z,2.70
2018-09-20T15:52:59.111Z,2.80
2018-09-20T15:55:27.719Z,2.83
2018-09-20T15:57:56.524Z,2.90
2018-09-20T16:00:26.047Z,2.43
2018-09-20T16:02:54.627Z,2.73
2018-09-20T16:05:23.361Z,2.73
2018-09-20T16:07:51.905Z,2.77
2018-09-20T16:10:20.414Z,2.77
2018-09-20T16:12:48.936Z,2.43
2018-09-20T16:15:17.971Z,3.03
2018-09-20T16:17:46.699Z,2.60
2018-09-20T16:20:15.438Z,2.20
2018-09-20T16:22:44.098Z,2.43
2018-09-20T16:25:12.685Z,3.27
2018-09-20T16:27:41.417Z,2.70
2018-09-20T16:30:27.166Z,3.20
2018-09-20T16:33:12.617Z,2.90
2018-09-20T16:35:55.428Z,2.80
2018-09-20T16:38:33.458Z,2.77
2018-09-20T16:41:03.491Z,2.60
2018-09-20T16:43:32.109Z,2.87
2018-09-20T16:46:01.749Z,2.67
2018-09-20T16:48:30.390Z,2.90
2018-09-20T16:50:58.940Z,3.07
2018-09-20T16:53:27.773Z,2.90
2018-09-20T16:55:56.192Z,2.60
2018-09-20T16:58:27.050Z,2.30
2018-09-20T17:00:55.632Z,2.80
2018-09-20T17:03:24.237Z,3.23
2018-09-20T17:05:52.825Z,2.80
2018-09-20T17:08:21.399Z,3.03
2018-09-20T17:10:50.021Z,2.77
2018-09-20T17:13:19.330Z,2.80
2018-09-20T17:15:47.830Z,3.10
2018-09-20T17:18:16.556Z,3.10
2018-09-20T17:20:45.154Z,2.90
2018-09-20T17:23:13.698Z,2.80
2018-09-20T17:25:42.235Z,3.50
2018-09-20T17:28:10.784Z,2.77
2018-09-20T17:30:39.378Z,3.40
2018-09-20T17:33:07.944Z,3.00
2018-09-20T17:35:36.743Z,2.87
2018-09-20T17:38:06.156Z,3.33
2018-09-20T17:40:36.004Z,3.07
2018-09-20T17:43:07.409Z,3.10
2018-09-20T17:45:36.044Z,3.30
2018-09-20T17:48:04.604Z,3.40
2018-09-20T17:50:33.286Z,3.20
2018-09-20T17:53:02.126Z,3.30
2018-09-20T17:55:31.434Z,3.47
2018-09-20T17:58:00.388Z,3.50
2018-09-20T18:00:28.868Z,2.93
2018-09-20T18:02:57.425Z,2.97
2018-09-20T18:05:25.973Z,3.00
2018-09-20T18:07:54.795Z,3.17
2018-09-20T18:10:23.443Z,2.83
2018-09-20T18:12:52.023Z,3.30
2018-09-20T18:15:20.651Z,3.27
2018-09-20T18:17:49.264Z,3.37
2018-09-20T18:20:17.792Z,3.50
2018-09-20T18:22:46.405Z,3.00
2018-09-20T18:25:14.915Z,3.20
2018-09-20T18:27:50.240Z,3.13
2018-09-20T18:30:18.812Z,3.07
2018-09-20T18:32:47.327Z,3.23
2018-09-20T18:35:16.328Z,3.83
2018-09-20T18:37:45.324Z,3.30
2018-09-20T18:40:14.014Z,3.57
2018-09-20T18:42:42.647Z,3.30
2018-09-20T18:45:11.199Z,3.17
2018-09-20T18:47:39.993Z,3.60
2018-09-20T18:50:08.633Z,3.50
2018-09-20T18:52:37.444Z,3.43
2018-09-20T18:55:06.417Z,3.20
2018-09-20T18:57:35.204Z,3.83
2018-09-20T19:00:03.830Z,3.37
2018-09-20T19:02:32.651Z,3.40
2018-09-20T19:05:01.588Z,3.20
2018-09-20T19:07:30.223Z,3.60
2018-09-20T19:09:58.953Z,3.17
2018-09-20T19:12:28.219Z,3.40
2018-09-20T19:14:56.885Z,3.50
2018-09-20T19:17:25.547Z,3.43
2018-09-20T19:19:54.166Z,3.60
2018-09-20T19:22:22.691Z,3.00
2018-09-20T19:24:51.517Z,3.17
2018-09-20T19:27:20.059Z,3.80
2018-09-20T19:29:49.339Z,3.70
2018-09-20T19:32:17.935Z,3.30
2018-09-20T19:34:46.471Z,3.60
2018-09-20T19:37:15.181Z,3.20
2018-09-20T19:39:43.793Z,3.10
2018-09-20T19:42:12.306Z,3.37
2018-09-20T19:44:41.213Z,3.37
2018-09-20T19:47:09.745Z,3.47
2018-09-20T19:49:38.848Z,3.20
2018-09-20T19:52:07.544Z,3.30
2018-09-20T19:54:36.299Z,3.20
2018-09-20T19:57:04.965Z,3.40
2018-09-20T19:59:34.197Z,3.47
2018-09-20T20:02:02.790Z,3.70
2018-09-20T20:04:31.660Z,3.47
2018-09-20T20:07:00.260Z,3.60
2018-09-20T20:09:28.827Z,3.40
2018-09-20T20:11:57.452Z,3.77
2018-09-20T20:14:26.222Z,3.67
2018-09-20T20:16:54.887Z,3.90
2018-09-20T20:19:23.487Z,3.40
2018-09-20T20:21:52.639Z,3.83
2018-09-20T20:24:21.298Z,3.37
2018-09-20T20:26:49.947Z,3.67
2018-09-20T20:29:18.597Z,3.43
2018-09-20T20:31:47.200Z,3.10
2018-09-20T20:34:15.912Z,3.63
2018-09-20T20:36:44.568Z,3.70
2018-09-20T20:39:13.142Z,3.93
2018-09-20T20:41:41.720Z,3.60
2018-09-20T20:44:10.344Z,3.53
2018-09-20T20:46:38.887Z,3.60
2018-09-20T20:49:07.553Z,3.63
2018-09-20T20:51:36.085Z,3.40
2018-09-20T20:54:04.917Z,3.50
2018-09-20T20:56:33.668Z,3.67
2018-09-20T20:59:02.178Z,3.60
2018-09-20T21:01:30.736Z,3.73
2018-09-20T21:03:59.225Z,3.90
2018-09-20T21:06:28.520Z,3.93
2018-09-20T21:08:57.186Z,3.50
2018-09-20T21:11:25.689Z,3.60
2018-09-20T21:13:54.427Z,3.50
2018-09-20T21:16:23.514Z,3.90
2018-09-20T21:18:52.046Z,3.70
2018-09-20T21:21:20.691Z,4.03
2018-09-20T21:23:49.287Z,4.07
2018-09-20T21:26:18.360Z,3.80
2018-09-20T21:28:47.071Z,3.83
2018-09-20T21:31:15.637Z,3.57
2018-09-20T21:33:44.247Z,3.60
2018-09-20T21:36:12.796Z,3.80
2018-09-20T21:38:41.358Z,3.50
2018-09-20T21:41:09.969Z,3.73
2018-09-20T21:43:38.755Z,3.63
2018-09-20T21:46:07.346Z,3.67
2018-09-20T21:48:36.035Z,4.20
2018-09-20T21:51:04.650Z,4.23
2018-09-20T21:53:34.196Z,3.73
2018-09-20T21:56:03.018Z,3.97
2018-09-20T21:58:31.598Z,4.47
2018-09-20T22:01:02.980Z,4.10
2018-09-20T22:03:32.174Z,4.20
2018-09-20T22:06:00.700Z,4.37
2018-09-20T22:08:29.258Z,4.43
2018-09-20T22:10:57.977Z,3.90
2018-09-20T22:13:26.476Z,4.00
2018-09-20T22:15:55.079Z,4.20
2018-09-20T22:18:23.783Z,4.30
2018-09-20T22:20:52.365Z,3.77
2018-09-20T22:23:20.995Z,4.20
2018-09-20T22:25:49.519Z,3.67
2018-09-20T22:28:18.940Z,3.67
2018-09-20T22:30:47.472Z,4.37
2018-09-20T22:33:16.707Z,4.10
2018-09-20T22:35:45.366Z,3.70
2018-09-20T22:38:14.028Z,3.93
2018-09-20T22:40:42.551Z,3.87
2018-09-20T22:43:11.753Z,4.00
2018-09-20T22:45:40.495Z,3.70
2018-09-20T22:48:08.987Z,4.03
2018-09-20T22:50:37.481Z,4.10
2018-09-20T22:53:06.860Z,3.87
2018-09-20T22:55:35.392Z,3.70
2018-09-20T22:58:04.056Z,3.83
2018-09-20T23:00:32.665Z,4.20
2018-09-20T23:03:01.136Z,3.63
2018-09-20T23:05:29.631Z,3.87
2018-09-20T23:07:58.241Z,3.60
2018-09-20T23:10:26.766Z,3.97
2018-09-20T23:12:55.331Z,3.83
2018-09-20T23:15:24.062Z,4.10
2018-09-20T23:17:53.372Z,3.63
2018-09-20T23:20:21.991Z,3.80
2018-09-20T23:22:51.640Z,4.13
2018-09-20T23:25:20.163Z,3.97
2018-09-20T23:27:48.666Z,4.00
2018-09-20T23:30:17.172Z,3.90
2018-09-20T23:32:45.754Z,4.03
2018-09-20T23:35:14.408Z,4.00
2018-09-20T23:37:42.900Z,4.20
2018-09-20T23:40:11.543Z,4.40
2018-09-20T23:42:40.152Z,4.30
2018-09-20T23:45:08.765Z,4.30
2018-09-20T23:47:37.856Z,4.10
2018-09-20T23:50:06.349Z,4.07
2018-09-20T23:52:35.123Z,4.33
2018-09-20T23:55:03.907Z,4.00
2018-09-20T23:57:32.388Z,4.20
